createdAt,value
2019-03-03T00:00:38.152Z,1003.04
2019-03-03T00:01:38.143Z,1003.00
2019-03-03T00:02:38.139Z,1003.08
2019-03-03T00:03:38.131Z,1003.08
2019-03-03T00:04:38.128Z,1003.07
2019-03-03T00:05:38.269Z,1003.05
2019-03-03T00:06:38.114Z,1003.04
2019-03-03T00:07:38.106Z,1003.10
2019-03-03T00:08:38.103Z,1003.18
2019-03-03T00:09:38.094Z,1003.18
2019-03-03T00:11:25.508Z,1003.17
2019-03-03T00:12:25.502Z,1003.17
2019-03-03T00:13:25.493Z,1003.23
2019-03-03T00:14:25.490Z,1003.17
2019-03-03T00:15:25.483Z,1003.19
2019-03-03T00:16:25.481Z,1003.18
2019-03-03T00:17:25.479Z,1003.22
2019-03-03T00:18:25.485Z,1003.12
2019-03-03T00:19:25.482Z,1003.18
2019-03-03T00:20:25.453Z,1003.18
2019-03-03T00:21:25.448Z,1003.22
2019-03-03T00:22:25.441Z,1003.19
2019-03-03T00:23:25.432Z,1003.14
2019-03-03T00:24:25.429Z,1003.14
2019-03-03T00:25:25.426Z,1003.12
2019-03-03T00:26:25.430Z,1003.15
2019-03-03T00:27:25.409Z,1003.11
2019-03-03T00:28:28.028Z,1003.09
2019-03-03T00:29:25.395Z,1003.12
2019-03-03T00:30:25.405Z,1003.09
2019-03-03T00:31:25.383Z,1003.12
2019-03-03T00:32:25.378Z,1003.05
2019-03-03T00:33:25.370Z,1003.05
2019-03-03T00:34:25.366Z,1003.03
2019-03-03T00:35:25.358Z,1003.06
2019-03-03T00:36:25.355Z,1003.08
2019-03-03T00:37:25.349Z,1003.07
2019-03-03T00:38:25.343Z,1003.07
2019-03-03T00:39:25.333Z,1003.04
2019-03-03T00:40:25.329Z,1003.00
2019-03-03T00:41:25.320Z,1002.95
2019-03-03T00:42:25.316Z,1002.90
2019-03-03T00:43:25.308Z,1002.98
2019-03-03T00:44:25.305Z,1003.00
2019-03-03T00:45:25.296Z,1002.99
2019-03-03T00:46:25.291Z,1002.89
2019-03-03T00:47:25.287Z,1002.93
2019-03-03T00:48:25.278Z,1002.95
2019-03-03T00:49:25.271Z,1002.90
2019-03-03T00:50:25.266Z,1002.92
2019-03-03T00:51:25.259Z,1002.96
2019-03-03T00:52:25.254Z,1002.91
2019-03-03T00:53:25.248Z,1002.89
2019-03-03T00:54:25.243Z,1002.85
2019-03-03T00:55:25.235Z,1002.86
2019-03-03T01:01:26.609Z,1002.78
2019-03-03T01:02:26.604Z,1002.77
2019-03-03T02:40:13.994Z,1001.36
2019-03-03T02:59:09.118Z,1001.06
2019-03-03T03:00:09.114Z,1001.03
2019-03-03T03:01:09.104Z,1001.10
2019-03-03T03:02:09.118Z,1001.05
2019-03-03T03:03:09.091Z,1001.08
2019-03-03T03:04:09.087Z,1001.04
2019-03-03T03:05:09.077Z,1000.98
2019-03-03T03:06:09.074Z,1001.08
2019-03-03T03:07:09.067Z,1001.07
2019-03-03T03:08:09.064Z,1001.00
2019-03-03T03:09:09.054Z,1000.99
2019-03-03T03:10:09.053Z,1000.98
2019-03-03T03:11:09.041Z,1000.92
2019-03-03T03:12:09.042Z,1000.92
2019-03-03T03:13:09.028Z,1000.97
2019-03-03T03:14:09.026Z,1000.89
2019-03-03T03:15:09.022Z,1000.90
2019-03-03T03:16:09.013Z,1000.91
2019-03-03T03:17:09.005Z,1000.86
2019-03-03T03:18:09.000Z,1000.82
2019-03-03T03:19:08.991Z,1000.87
2019-03-03T03:20:08.990Z,1000.82
2019-03-03T03:21:08.977Z,1000.85
2019-03-03T03:22:08.975Z,1000.89
2019-03-03T03:23:08.994Z,1000.88
2019-03-03T03:24:08.967Z,1000.91
2019-03-03T03:25:08.954Z,1000.85
2019-03-03T03:26:08.949Z,1000.85
2019-03-03T03:27:08.941Z,1000.80
2019-03-03T03:28:08.942Z,1000.85
2019-03-03T03:29:09.179Z,1000.89
2019-03-03T03:30:08.928Z,1000.82
2019-03-03T03:31:08.917Z,1000.87
2019-03-03T03:32:08.919Z,1000.93
2019-03-03T03:33:08.903Z,1000.80
2019-03-03T03:34:08.926Z,1000.84
2019-03-03T03:35:08.892Z,1000.84
2019-03-03T03:36:08.886Z,1000.80
2019-03-03T03:37:08.886Z,1000.87
2019-03-03T03:38:08.876Z,1000.93
2019-03-03T03:39:08.867Z,1000.93
2019-03-03T03:40:08.869Z,1000.96
2019-03-03T03:41:08.857Z,1000.94
2019-03-03T03:42:08.853Z,1000.98
2019-03-03T03:43:08.842Z,1000.95
2019-03-03T03:44:08.840Z,1000.91
2019-03-03T03:45:08.829Z,1000.87
2019-03-03T03:46:08.826Z,1000.83
2019-03-03T03:47:08.817Z,1000.84
2019-03-03T03:48:08.813Z,1000.81
2019-03-03T03:49:08.803Z,1000.81
2019-03-03T03:50:08.801Z,1000.76
2019-03-03T03:51:08.791Z,1000.80
2019-03-03T03:52:08.787Z,1000.77
2019-03-03T03:53:08.779Z,1000.83
2019-03-03T03:54:08.774Z,1000.65
2019-03-03T03:55:08.782Z,1000.75
2019-03-03T03:56:08.773Z,1000.69
2019-03-03T03:57:08.761Z,1000.67
2019-03-03T03:58:08.764Z,1000.64
2019-03-03T03:59:08.747Z,1000.70
2019-03-03T04:01:06.176Z,1000.65
2019-03-03T04:02:06.169Z,1000.67
2019-03-03T04:03:06.164Z,1000.62
2019-03-03T04:05:38.654Z,1000.66
2019-03-03T04:06:38.661Z,1000.61
2019-03-03T04:07:38.646Z,1000.60
2019-03-03T04:08:38.637Z,1000.60
2019-03-03T04:09:38.630Z,1000.58
2019-03-03T04:10:38.624Z,1000.60
2019-03-03T04:11:38.617Z,1000.56
2019-03-03T04:12:38.613Z,1000.52
2019-03-03T04:13:38.607Z,1000.53
2019-03-03T04:14:38.601Z,1000.51
2019-03-03T04:15:38.597Z,1000.48
2019-03-03T04:16:38.592Z,1000.53
2019-03-03T04:17:38.582Z,1000.55
2019-03-03T04:18:38.576Z,1000.59
2019-03-03T04:19:38.651Z,1000.53
2019-03-03T04:20:38.563Z,1000.52
2019-03-03T04:21:38.560Z,1000.47
2019-03-03T04:22:38.551Z,1000.47
2019-03-03T04:23:38.543Z,1000.57
2019-03-03T04:24:38.539Z,1000.44
2019-03-03T04:25:38.532Z,1000.51
2019-03-03T04:26:38.527Z,1000.53
2019-03-03T04:27:38.517Z,1000.33
2019-03-03T04:28:38.514Z,1000.39
2019-03-03T04:32:09.196Z,1000.45
2019-03-03T04:33:09.191Z,1000.47
2019-03-03T04:34:09.184Z,1000.41
2019-03-03T04:35:09.180Z,1000.40
2019-03-03T04:36:09.175Z,1000.43
2019-03-03T04:37:09.168Z,1000.45
2019-03-03T04:38:09.159Z,1000.46
2019-03-03T04:39:09.155Z,1000.39
2019-03-03T04:40:09.168Z,1000.39
2019-03-03T04:41:09.147Z,1000.36
2019-03-03T04:42:09.135Z,1000.27
2019-03-03T04:43:09.134Z,1000.31
2019-03-03T04:44:09.123Z,1000.28
2019-03-03T04:47:49.824Z,1000.27
2019-03-03T05:52:29.952Z,999.77
2019-03-03T05:53:29.949Z,999.69
2019-03-03T05:54:29.937Z,999.70
2019-03-03T05:55:29.933Z,999.66
2019-03-03T07:31:28.923Z,999.72
2019-03-03T07:32:28.920Z,999.68
2019-03-03T07:33:28.914Z,999.58
2019-03-03T07:34:28.917Z,999.69
2019-03-03T07:35:28.893Z,999.69
2019-03-03T07:36:28.888Z,999.67
2019-03-03T07:37:28.879Z,999.68
2019-03-03T07:38:28.873Z,999.66
2019-03-03T07:39:28.864Z,999.64
2019-03-03T07:40:28.858Z,999.68
2019-03-03T07:41:28.849Z,999.64
2019-03-03T08:05:57.950Z,999.83
2019-03-03T08:06:57.928Z,999.85
2019-03-03T08:07:57.918Z,999.80
2019-03-03T08:08:57.915Z,999.85
2019-03-03T08:09:58.494Z,999.86
2019-03-03T08:10:57.899Z,999.84
2019-03-03T08:11:57.894Z,999.84
2019-03-03T08:12:57.885Z,999.89
2019-03-03T08:13:57.876Z,999.91
2019-03-03T08:14:57.876Z,999.87
2019-03-03T08:15:57.862Z,999.79
2019-03-03T08:16:57.856Z,999.83
2019-03-03T08:17:57.853Z,999.90
2019-03-03T08:18:57.847Z,999.85
2019-03-03T08:19:57.834Z,999.89
2019-03-03T08:20:57.827Z,999.88
2019-03-03T08:21:57.819Z,999.84
2019-03-03T08:22:57.814Z,999.86
2019-03-03T08:23:57.804Z,999.87
2019-03-03T08:24:57.799Z,999.81
2019-03-03T08:25:57.790Z,999.87
2019-03-03T08:26:57.787Z,999.88
2019-03-03T08:27:57.775Z,999.88
2019-03-03T08:28:57.771Z,999.88
2019-03-03T08:29:57.769Z,999.90
2019-03-03T08:30:57.759Z,999.85
2019-03-03T08:31:57.748Z,999.89
2019-03-03T08:32:57.742Z,999.82
2019-03-03T08:33:57.733Z,999.87
2019-03-03T08:34:57.729Z,999.85
2019-03-03T08:35:57.719Z,999.87
2019-03-03T08:36:57.713Z,999.87
2019-03-03T08:37:57.704Z,999.90
2019-03-03T08:38:57.701Z,999.93
2019-03-03T08:39:57.691Z,999.88
2019-03-03T08:40:57.685Z,999.91
2019-03-03T08:41:57.676Z,999.90
2019-03-03T08:42:57.671Z,999.91
2019-03-03T08:43:57.661Z,1000.00
2019-03-03T08:44:57.658Z,999.88
2019-03-03T08:45:57.650Z,999.92
2019-03-03T08:46:57.643Z,999.91
2019-03-03T08:47:57.634Z,999.90
2019-03-03T08:48:57.629Z,999.96
2019-03-03T08:49:57.621Z,999.88
2019-03-03T08:50:57.615Z,999.89
2019-03-03T08:51:57.606Z,999.95
2019-03-03T08:52:57.601Z,999.97
2019-03-03T08:53:57.592Z,999.93
2019-03-03T08:55:00.002Z,999.93
2019-03-03T08:55:57.577Z,999.93
2019-03-03T08:56:57.573Z,999.94
2019-03-03T08:57:57.565Z,999.94
2019-03-03T08:58:57.560Z,999.83
2019-03-03T08:59:57.550Z,999.88
2019-03-03T09:00:57.545Z,999.89
2019-03-03T09:01:57.536Z,999.89
2019-03-03T09:02:57.531Z,999.89
2019-03-03T09:03:57.522Z,999.89
2019-03-03T09:04:57.518Z,999.95
2019-03-03T09:05:57.509Z,999.86
2019-03-03T09:06:57.503Z,999.91
2019-03-03T09:07:57.496Z,999.87
2019-03-03T09:08:57.492Z,999.91
2019-03-03T09:09:57.482Z,999.87
2019-03-03T09:12:47.343Z,999.93
2019-03-03T09:13:47.333Z,999.82
2019-03-03T09:14:47.323Z,999.90
2019-03-03T09:15:47.321Z,999.90
2019-03-03T09:16:48.361Z,999.84
2019-03-03T09:17:47.305Z,999.84
2019-03-03T09:18:47.295Z,999.88
2019-03-03T09:19:47.290Z,999.86
2019-03-03T09:20:47.285Z,999.84
2019-03-03T09:21:47.277Z,999.86
2019-03-03T09:22:47.269Z,999.84
2019-03-03T09:23:47.263Z,999.83
2019-03-03T09:24:47.255Z,999.88
2019-03-03T09:25:47.251Z,999.90
2019-03-03T09:26:47.240Z,999.87
2019-03-03T09:27:47.237Z,999.78
2019-03-03T09:28:47.227Z,999.78
2019-03-03T09:29:47.224Z,999.86
2019-03-03T09:30:47.213Z,999.85
2019-03-03T09:31:47.208Z,999.82
2019-03-03T09:32:47.199Z,999.84
2019-03-03T09:33:49.384Z,999.90
2019-03-03T09:34:47.189Z,999.88
2019-03-03T09:35:47.432Z,999.76
2019-03-03T09:36:47.175Z,999.68
2019-03-03T09:37:47.168Z,999.69
2019-03-03T09:38:47.158Z,999.62
2019-03-03T09:39:47.154Z,999.76
2019-03-03T09:40:47.147Z,999.74
2019-03-03T09:41:47.141Z,999.71
2019-03-03T09:42:47.131Z,999.83
2019-03-03T09:43:47.131Z,999.80
2019-03-03T09:44:47.130Z,999.80
2019-03-03T09:45:47.117Z,999.72
2019-03-03T09:46:47.104Z,999.70
2019-03-03T09:47:47.099Z,999.74
2019-03-03T09:48:47.090Z,999.60
2019-03-03T09:49:47.085Z,999.67
2019-03-03T09:50:47.077Z,999.71
2019-03-03T09:51:47.077Z,999.80
2019-03-03T09:52:47.082Z,999.70
2019-03-03T09:53:47.061Z,999.70
2019-03-03T09:54:47.049Z,999.79
2019-03-03T09:55:47.044Z,999.64
2019-03-03T09:56:47.035Z,999.65
2019-03-03T09:57:47.031Z,999.66
2019-03-03T09:58:47.021Z,999.67
2019-03-03T09:59:47.016Z,999.69
2019-03-03T10:00:47.008Z,999.66
2019-03-03T10:01:47.005Z,999.72
2019-03-03T10:02:46.994Z,999.57
2019-03-03T10:03:46.989Z,999.62
2019-03-03T10:04:46.981Z,999.65
2019-03-03T10:05:46.976Z,999.63
2019-03-03T10:06:46.967Z,999.58
2019-03-03T10:07:46.962Z,999.70
2019-03-03T10:08:46.954Z,999.59
2019-03-03T10:09:46.954Z,999.62
2019-03-03T10:10:46.940Z,999.63
2019-03-03T10:11:46.935Z,999.63
2019-03-03T10:12:46.928Z,999.64
2019-03-03T10:13:47.125Z,999.60
2019-03-03T10:16:04.388Z,999.59
2019-03-03T10:21:53.703Z,999.57
2019-03-03T10:22:53.397Z,999.59
2019-03-03T10:23:53.389Z,999.60
2019-03-03T10:24:53.432Z,999.64
2019-03-03T10:25:53.377Z,999.63
2019-03-03T10:26:53.371Z,999.64
2019-03-03T10:27:53.363Z,999.61
2019-03-03T10:28:53.359Z,999.60
2019-03-03T10:30:50.786Z,999.68
2019-03-03T10:31:50.782Z,999.57
2019-03-03T10:32:50.773Z,999.59
2019-03-03T10:33:50.771Z,999.59
2019-03-03T10:34:50.760Z,999.64
2019-03-03T10:35:50.755Z,999.51
2019-03-03T10:36:50.747Z,999.60
2019-03-03T10:37:50.742Z,999.63
2019-03-03T10:38:50.735Z,999.52
2019-03-03T10:39:50.730Z,999.52
2019-03-03T10:40:50.720Z,999.59
2019-03-03T10:41:50.720Z,999.53
2019-03-03T10:42:50.707Z,999.56
2019-03-03T10:43:50.702Z,999.53
2019-03-03T10:44:50.694Z,999.51
2019-03-03T10:45:50.689Z,999.52
2019-03-03T10:46:50.681Z,999.48
2019-03-03T10:47:50.676Z,999.54
2019-03-03T10:48:50.668Z,999.55
2019-03-03T10:49:50.667Z,999.49
2019-03-03T10:50:50.654Z,999.52
2019-03-03T10:51:50.649Z,999.56
2019-03-03T10:52:50.642Z,999.50
2019-03-03T10:53:50.637Z,999.49
2019-03-03T10:55:33.038Z,999.41
2019-03-03T10:56:33.051Z,999.53
2019-03-03T10:57:33.025Z,999.51
2019-03-03T10:58:33.021Z,999.55
2019-03-03T10:59:33.013Z,999.55
2019-03-03T11:00:33.010Z,999.46
2019-03-03T11:01:32.999Z,999.43
2019-03-03T11:02:32.999Z,999.47
2019-03-03T11:03:32.986Z,999.55
2019-03-03T11:04:32.984Z,999.49
2019-03-03T11:05:32.973Z,999.50
2019-03-03T11:06:32.969Z,999.41
2019-03-03T11:07:32.961Z,999.47
2019-03-03T11:08:32.957Z,999.44
2019-03-03T11:09:32.947Z,999.32
2019-03-03T11:10:32.943Z,999.36
2019-03-03T11:11:32.936Z,999.44
2019-03-03T11:12:33.012Z,999.46
2019-03-03T11:13:32.922Z,999.39
2019-03-03T11:14:32.919Z,999.36
2019-03-03T11:15:32.911Z,999.44
2019-03-03T11:16:32.906Z,999.45
2019-03-03T11:17:32.899Z,999.41
2019-03-03T11:18:32.893Z,999.40
2019-03-03T11:19:32.884Z,999.43
2019-03-03T11:20:32.887Z,999.44
2019-03-03T11:21:32.871Z,999.43
2019-03-03T11:22:32.867Z,999.43
2019-03-03T11:23:32.861Z,999.42
2019-03-03T11:24:32.855Z,999.37
2019-03-03T11:25:32.846Z,999.34
2019-03-03T11:26:33.143Z,999.38
2019-03-03T11:27:32.846Z,999.47
2019-03-03T11:28:32.992Z,999.35
2019-03-03T11:29:32.820Z,999.49
2019-03-03T11:31:25.256Z,999.37
2019-03-03T11:32:25.256Z,999.39
2019-03-03T11:33:25.230Z,999.45
2019-03-03T11:34:25.228Z,999.40
2019-03-03T11:35:25.218Z,999.38
2019-03-03T11:36:25.213Z,999.37
2019-03-03T11:37:25.206Z,999.37
2019-03-03T11:38:25.402Z,999.26
2019-03-03T11:39:25.221Z,999.33
2019-03-03T11:40:25.210Z,999.37
2019-03-03T11:44:35.944Z,999.43
2019-03-03T11:45:35.939Z,999.31
2019-03-03T11:46:35.932Z,999.18
2019-03-03T11:47:35.932Z,999.20
2019-03-03T11:48:35.932Z,999.28
2019-03-03T11:49:35.916Z,999.26
2019-03-03T11:50:35.907Z,999.30
2019-03-03T11:51:35.918Z,999.24
2019-03-03T11:52:35.893Z,999.13
2019-03-03T11:53:35.895Z,999.27
2019-03-03T11:54:35.884Z,999.25
2019-03-03T11:55:35.876Z,999.20
2019-03-03T11:56:36.169Z,999.22
2019-03-03T11:57:35.865Z,999.21
2019-03-03T11:58:35.857Z,999.17
2019-03-03T11:59:35.852Z,999.14
2019-03-03T12:12:07.941Z,998.90
2019-03-03T12:13:07.937Z,999.05
2019-03-03T12:14:07.929Z,998.92
2019-03-03T17:27:24.447Z,995.30
2019-03-03T17:28:24.440Z,995.37
2019-03-03T17:29:24.433Z,995.38
2019-03-03T17:30:24.431Z,995.34
2019-03-03T17:55:29.388Z,995.13
2019-03-03T17:56:29.385Z,995.12
2019-03-03T17:57:29.375Z,995.14
2019-03-03T17:58:29.374Z,995.15
2019-03-03T17:59:29.366Z,995.10
2019-03-03T18:00:29.369Z,994.96
2019-03-03T18:01:29.356Z,995.08
2019-03-03T18:02:29.352Z,995.10
2019-03-03T18:03:29.346Z,995.01
2019-03-03T18:04:29.342Z,995.11
2019-03-03T18:05:29.335Z,995.07
2019-03-03T18:06:38.381Z,995.08
2019-03-03T18:07:29.325Z,995.03
2019-03-03T18:08:29.322Z,995.01
2019-03-03T18:09:29.316Z,995.01
2019-03-03T18:10:29.313Z,995.02
2019-03-03T18:11:29.306Z,994.93
2019-03-03T18:12:29.302Z,994.88
2019-03-03T18:13:29.295Z,994.88
2019-03-03T18:14:29.294Z,994.89
2019-03-03T18:15:29.286Z,994.90
2019-03-03T18:16:29.283Z,994.87
2019-03-03T18:17:29.317Z,994.84
2019-03-03T18:18:29.273Z,994.77
2019-03-03T18:19:29.567Z,994.79
2019-03-03T18:20:29.263Z,994.86
2019-03-03T18:21:29.257Z,994.78
2019-03-03T18:22:29.255Z,994.81
2019-03-03T18:23:29.734Z,994.75
2019-03-03T18:24:29.245Z,994.76
2019-03-03T18:25:29.239Z,994.79
2019-03-03T18:26:29.234Z,994.64
2019-03-03T18:27:29.228Z,994.65
2019-03-03T18:28:29.226Z,994.70
2019-03-03T18:30:21.649Z,994.57
2019-03-03T18:31:21.644Z,994.58
2019-03-03T18:32:21.640Z,994.60
2019-03-03T18:33:21.641Z,994.60
2019-03-03T18:34:21.627Z,994.46
2019-03-03T18:35:21.627Z,994.52
2019-03-03T18:36:21.620Z,994.51
2019-03-03T18:37:21.617Z,994.48
2019-03-03T18:38:21.608Z,994.47
2019-03-03T18:39:21.606Z,994.50
2019-03-03T18:40:21.599Z,994.51
2019-03-03T18:41:21.595Z,994.51
2019-03-03T18:42:21.589Z,994.47
2019-03-03T18:43:21.587Z,994.57
2019-03-03T18:44:21.582Z,994.45
2019-03-03T18:45:21.576Z,994.49
2019-03-03T18:46:21.570Z,994.43
2019-03-03T18:47:21.618Z,994.48
2019-03-03T18:48:21.561Z,994.42
2019-03-03T18:49:21.559Z,994.43
2019-03-03T18:50:21.552Z,994.39
2019-03-03T18:51:21.548Z,994.38
2019-03-03T18:52:21.541Z,994.30
2019-03-03T18:53:21.539Z,994.33
2019-03-03T18:54:21.532Z,994.30
2019-03-03T18:55:21.531Z,994.33
2019-03-03T18:56:21.523Z,994.28
2019-03-03T18:57:21.520Z,994.28
2019-03-03T18:58:21.513Z,994.24
2019-03-03T18:59:21.511Z,994.26
2019-03-03T19:00:22.543Z,994.25
2019-03-03T19:01:21.504Z,994.26
2019-03-03T19:02:21.495Z,994.18
2019-03-03T19:03:21.732Z,994.15
2019-03-03T19:04:21.486Z,994.21
2019-03-03T19:05:21.487Z,994.22
2019-03-03T19:07:21.471Z,994.13
2019-03-03T19:08:21.471Z,994.12
2019-03-03T19:09:21.462Z,994.21
2019-03-03T19:10:21.508Z,994.14
2019-03-03T19:11:21.453Z,994.15
2019-03-03T19:12:21.452Z,994.08
2019-03-03T19:13:21.448Z,994.13
2019-03-03T19:14:27.964Z,994.03
2019-03-03T19:15:21.440Z,993.99
2019-03-03T19:16:21.433Z,993.98
2019-03-03T19:17:21.426Z,993.97
2019-03-03T19:18:21.423Z,993.94
2019-03-03T19:28:50.233Z,993.77
2019-03-03T19:29:50.219Z,993.77
2019-03-03T19:30:50.222Z,993.78
2019-03-03T19:31:50.208Z,993.80
2019-03-03T19:32:50.207Z,993.87
2019-03-03T19:33:50.199Z,993.72
2019-03-03T19:34:50.193Z,993.71
2019-03-03T21:00:09.766Z,992.45
2019-03-03T21:01:09.764Z,992.43
2019-03-03T21:02:09.761Z,992.41
2019-03-03T21:03:09.753Z,992.43
2019-03-03T21:04:09.752Z,992.34
2019-03-03T21:05:09.745Z,992.36
2019-03-03T21:06:09.739Z,992.25
2019-03-03T21:07:09.735Z,992.31
2019-03-03T21:08:09.728Z,992.21
2019-03-03T21:09:09.731Z,992.18
2019-03-03T21:10:09.718Z,992.26
2019-03-03T21:11:09.716Z,992.23
2019-03-03T21:12:09.760Z,992.31
2019-03-03T21:13:09.706Z,992.38
2019-03-03T21:14:09.700Z,992.30
2019-03-03T21:15:09.698Z,992.19
2019-03-03T21:16:09.692Z,992.16
2019-03-03T21:17:09.700Z,992.25
2019-03-03T21:18:09.682Z,992.20
2019-03-03T21:19:09.678Z,992.17
2019-03-03T21:20:09.672Z,992.21
2019-03-03T21:21:09.669Z,992.18
2019-03-03T21:22:09.662Z,992.15
2019-03-03T21:23:09.660Z,992.03
2019-03-03T21:24:09.654Z,992.05
2019-03-03T21:25:09.650Z,992.11
2019-03-03T21:26:09.644Z,992.08
2019-03-03T21:27:09.640Z,992.13
2019-03-03T21:28:09.634Z,992.07
2019-03-03T21:29:09.632Z,992.06
2019-03-03T21:30:09.624Z,992.09
2019-03-03T21:31:09.622Z,992.12
2019-03-03T21:32:09.615Z,992.06
2019-03-03T21:33:09.613Z,992.06
2019-03-03T21:34:09.605Z,992.04
2019-03-03T21:35:09.604Z,992.02
2019-03-03T21:36:09.596Z,992.04
2019-03-03T21:37:09.593Z,991.88
2019-03-03T21:38:09.586Z,991.96
2019-03-03T21:39:09.584Z,992.02
2019-03-03T21:40:09.580Z,991.93
2019-03-03T21:41:09.574Z,991.83
2019-03-03T21:42:09.568Z,991.83
2019-03-03T21:43:09.567Z,991.90
2019-03-03T21:44:09.563Z,991.85
2019-03-03T21:45:09.557Z,991.84
2019-03-03T21:46:09.552Z,991.85
2019-03-03T21:47:09.548Z,991.85
2019-03-03T21:48:09.541Z,991.83
2019-03-03T21:49:09.537Z,991.78
2019-03-03T21:50:09.530Z,991.68
2019-03-03T21:51:09.529Z,991.68
2019-03-03T21:52:09.524Z,991.74
2019-03-03T21:53:09.519Z,991.66
2019-03-03T21:54:09.514Z,991.65
2019-03-03T21:55:09.511Z,991.70
2019-03-03T21:56:09.504Z,991.69
2019-03-03T21:57:09.501Z,991.60
2019-03-03T21:58:09.494Z,991.54
2019-03-03T21:59:09.492Z,991.58
2019-03-03T22:00:09.487Z,991.65
2019-03-03T22:01:09.486Z,991.64
2019-03-03T22:02:09.476Z,991.57
2019-03-03T22:03:09.476Z,991.63
2019-03-03T22:04:09.467Z,991.67
2019-03-03T22:24:47.893Z,991.36
2019-03-03T22:25:47.892Z,991.30
2019-03-03T22:26:47.883Z,991.23
2019-03-03T22:34:05.161Z,991.16
2019-03-03T22:36:17.622Z,991.10
2019-03-03T22:37:17.617Z,991.09
2019-03-03T22:38:17.611Z,991.06
2019-03-03T22:39:17.608Z,991.04
2019-03-03T22:40:17.603Z,990.94
2019-03-03T22:41:17.598Z,990.83
2019-03-03T23:33:31.726Z,989.64
2019-03-03T23:34:31.719Z,989.61
2019-03-03T23:35:31.712Z,989.52
2019-03-03T23:36:31.711Z,989.66
2019-03-03T23:37:31.703Z,989.57
2019-03-03T23:38:31.711Z,989.57
2019-03-03T23:39:31.695Z,989.58
2019-03-03T23:40:31.692Z,989.46
2019-03-03T23:41:31.687Z,989.44
2019-03-03T23:42:31.684Z,989.45
2019-03-03T23:43:31.677Z,989.45
2019-03-03T23:44:31.675Z,989.40
2019-03-03T23:45:31.668Z,989.42
2019-03-03T23:46:31.670Z,989.48
2019-03-03T23:47:31.661Z,989.51
2019-03-03T23:48:31.657Z,989.54
2019-03-03T23:49:31.650Z,989.53
2019-03-03T23:50:31.648Z,989.55
2019-03-03T23:51:31.642Z,989.57
2019-03-03T23:52:31.640Z,989.57
2019-03-03T23:53:31.633Z,989.59
2019-03-03T23:54:31.631Z,989.50
2019-03-03T23:55:31.628Z,989.52
2019-03-03T23:56:31.622Z,989.54
2019-03-03T23:57:31.621Z,989.48
2019-03-03T23:58:31.614Z,989.53
2019-03-03T23:59:31.612Z,989.75
